createdAt,value
2023-05-07T00:01:15.281Z,17.80
2023-05-07T00:03:42.960Z,17.70
2023-05-07T00:06:09.811Z,17.70
2023-05-07T00:08:36.438Z,17.70
2023-05-07T00:11:03.239Z,17.80
2023-05-07T00:13:31.683Z,17.80
2023-05-07T00:15:58.401Z,17.80
2023-05-07T00:18:25.035Z,17.90
2023-05-07T00:20:51.890Z,17.90
2023-05-07T00:23:18.541Z,17.70
2023-05-07T00:25:45.121Z,17.70
2023-05-07T00:28:11.716Z,17.70
2023-05-07T00:30:38.575Z,17.50
2023-05-07T00:33:05.386Z,17.60
2023-05-07T00:35:32.044Z,17.80
2023-05-07T00:37:58.945Z,17.80
2023-05-07T00:40:25.651Z,17.80
2023-05-07T00:42:57.592Z,17.80
2023-05-07T00:45:28.259Z,17.80
2023-05-07T00:48:00.364Z,17.80
2023-05-07T00:50:28.478Z,17.80
2023-05-07T00:52:55.836Z,17.90
2023-05-07T00:55:24.041Z,18.00
2023-05-07T00:57:51.783Z,18.00
2023-05-07T01:00:18.881Z,18.10
2023-05-07T01:02:45.552Z,18.10
2023-05-07T01:05:15.232Z,18.10
2023-05-07T01:07:43.420Z,18.00
2023-05-07T01:10:11.340Z,18.00
2023-05-07T01:12:40.547Z,18.00
2023-05-07T01:15:08.801Z,17.90
2023-05-07T01:17:41.038Z,17.80
2023-05-07T01:20:09.406Z,17.80
2023-05-07T01:22:37.778Z,17.80
2023-05-07T01:25:08.995Z,17.90
2023-05-07T01:27:37.468Z,17.90
2023-05-07T01:30:05.594Z,18.00
2023-05-07T01:32:32.189Z,18.00
2023-05-07T01:35:00.798Z,18.00
2023-05-07T01:37:27.801Z,18.00
2023-05-07T01:39:55.149Z,17.90
2023-05-07T01:42:22.858Z,17.90
2023-05-07T01:44:49.502Z,17.90
2023-05-07T01:47:16.990Z,17.90
2023-05-07T01:49:43.940Z,17.90
2023-05-07T01:52:12.511Z,17.80
2023-05-07T01:54:39.179Z,17.80
2023-05-07T01:57:06.055Z,17.80
2023-05-07T01:59:32.596Z,17.70
2023-05-07T02:01:59.224Z,17.70
2023-05-07T02:04:25.951Z,17.70
2023-05-07T02:06:53.595Z,17.70
2023-05-07T02:09:20.804Z,17.60
2023-05-07T02:11:47.340Z,17.70
2023-05-07T02:14:13.896Z,17.70
2023-05-07T02:16:40.570Z,17.70
2023-05-07T02:19:07.149Z,17.60
2023-05-07T02:21:33.699Z,17.60
2023-05-07T02:24:00.258Z,17.60
2023-05-07T02:26:26.837Z,17.50
2023-05-07T02:28:54.596Z,17.50
2023-05-07T02:31:21.248Z,17.60
2023-05-07T02:33:47.882Z,17.50
2023-05-07T02:36:14.401Z,17.50
2023-05-07T02:38:40.930Z,17.50
2023-05-07T02:41:07.553Z,17.60
2023-05-07T02:43:34.154Z,17.30
2023-05-07T02:46:08.284Z,17.30
2023-05-07T02:48:35.378Z,17.10
2023-05-07T02:51:02.941Z,17.10
2023-05-07T02:53:30.324Z,17.30
2023-05-07T02:55:58.154Z,17.30
2023-05-07T02:58:25.246Z,17.40
2023-05-07T03:00:52.341Z,17.40
2023-05-07T03:03:19.157Z,17.40
2023-05-07T03:05:45.691Z,17.30
2023-05-07T03:08:12.277Z,17.30
2023-05-07T03:10:38.957Z,17.30
2023-05-07T03:13:05.931Z,17.30
2023-05-07T03:15:32.470Z,17.20
2023-05-07T03:17:59.082Z,17.30
2023-05-07T03:20:25.850Z,17.20
2023-05-07T03:22:52.455Z,17.20
2023-05-07T03:25:19.083Z,17.20
2023-05-07T03:27:45.715Z,17.20
2023-05-07T03:30:13.253Z,17.10
2023-05-07T03:32:40.129Z,17.10
2023-05-07T03:35:07.021Z,17.10
2023-05-07T03:37:33.606Z,17.10
2023-05-07T03:40:00.784Z,17.10
2023-05-07T03:42:27.323Z,17.00
2023-05-07T03:44:53.822Z,16.90
2023-05-07T03:47:20.478Z,16.90
2023-05-07T03:49:47.114Z,16.90
2023-05-07T03:52:13.715Z,16.90
2023-05-07T03:54:40.552Z,16.90
2023-05-07T03:57:07.174Z,16.90
2023-05-07T03:59:33.803Z,16.90
2023-05-07T04:02:02.256Z,16.90
2023-05-07T04:04:33.678Z,17.00
2023-05-07T04:07:01.375Z,16.90
2023-05-07T04:09:28.013Z,16.70
2023-05-07T04:11:54.595Z,16.80
2023-05-07T04:14:21.190Z,16.90
2023-05-07T04:16:47.782Z,16.90
2023-05-07T04:19:14.409Z,16.90
2023-05-07T04:21:41.070Z,17.00
2023-05-07T04:24:07.987Z,17.00
2023-05-07T04:26:34.872Z,17.00
2023-05-07T04:29:01.506Z,17.00
2023-05-07T04:31:28.160Z,17.00
2023-05-07T04:33:54.697Z,16.90
2023-05-07T04:36:21.203Z,16.80
2023-05-07T04:38:47.720Z,16.90
2023-05-07T04:41:14.303Z,16.80
2023-05-07T04:43:41.065Z,16.90
2023-05-07T04:46:07.626Z,16.90
2023-05-07T04:48:34.372Z,16.90
2023-05-07T04:51:00.963Z,16.90
2023-05-07T04:53:27.535Z,17.00
2023-05-07T04:55:58.235Z,17.10
2023-05-07T04:58:25.222Z,17.10
2023-05-07T05:00:51.894Z,17.20
2023-05-07T05:03:18.586Z,17.20
2023-05-07T05:05:45.527Z,17.20
2023-05-07T05:08:12.110Z,17.20
2023-05-07T05:10:38.678Z,17.20
2023-05-07T05:13:05.288Z,17.20
2023-05-07T05:15:33.767Z,17.20
2023-05-07T05:18:00.638Z,17.30
2023-05-07T05:20:27.230Z,16.90
2023-05-07T05:22:53.770Z,16.50
2023-05-07T05:25:20.411Z,16.30
2023-05-07T05:27:46.956Z,16.10
2023-05-07T05:30:14.089Z,15.90
2023-05-07T05:32:40.861Z,15.70
2023-05-07T05:35:07.972Z,15.90
2023-05-07T05:37:34.963Z,15.90
2023-05-07T05:40:01.569Z,15.70
2023-05-07T05:42:28.145Z,15.40
2023-05-07T05:44:54.663Z,15.30
2023-05-07T05:47:21.267Z,15.10
2023-05-07T05:49:47.826Z,15.00
2023-05-07T05:52:15.178Z,14.90
2023-05-07T05:54:41.699Z,14.90
2023-05-07T05:57:08.299Z,15.00
2023-05-07T05:59:34.952Z,15.30
2023-05-07T06:02:01.543Z,15.40
2023-05-07T06:04:28.171Z,15.30
2023-05-07T06:06:55.228Z,15.20
2023-05-07T06:09:21.931Z,15.30
2023-05-07T06:11:48.466Z,15.30
2023-05-07T06:14:15.326Z,15.60
2023-05-07T06:16:42.859Z,16.00
2023-05-07T06:19:09.476Z,16.20
2023-05-07T06:21:36.031Z,16.20
2023-05-07T06:24:02.742Z,16.00
2023-05-07T06:26:29.250Z,16.00
2023-05-07T06:28:55.788Z,16.00
2023-05-07T06:31:22.484Z,15.90
2023-05-07T06:33:49.981Z,15.80
2023-05-07T06:36:16.586Z,15.80
2023-05-07T06:38:43.076Z,15.80
2023-05-07T06:41:09.632Z,15.80
2023-05-07T06:43:36.933Z,15.90
2023-05-07T06:46:03.804Z,16.00
2023-05-07T06:48:30.376Z,16.20
2023-05-07T06:50:58.425Z,16.20
2023-05-07T06:53:25.610Z,16.20
2023-05-07T06:55:52.988Z,16.20
2023-05-07T06:58:19.479Z,16.50
2023-05-07T07:00:46.736Z,16.70
2023-05-07T07:03:13.473Z,17.10
2023-05-07T07:05:41.975Z,17.80
2023-05-07T07:08:08.558Z,18.60
2023-05-07T07:10:35.236Z,19.00
2023-05-07T07:13:01.805Z,19.30
2023-05-07T07:15:28.413Z,19.70
2023-05-07T07:17:54.974Z,19.70
2023-05-07T07:20:21.568Z,19.50
2023-05-07T07:22:48.126Z,19.50
2023-05-07T07:25:14.691Z,19.70
2023-05-07T07:27:41.210Z,20.10
2023-05-07T07:30:08.973Z,20.10
2023-05-07T07:32:36.059Z,20.20
2023-05-07T07:35:03.127Z,20.30
2023-05-07T07:37:30.594Z,20.40
2023-05-07T07:39:57.206Z,20.70
2023-05-07T07:42:23.807Z,20.60
2023-05-07T07:44:50.583Z,20.50
2023-05-07T07:47:17.200Z,20.60
2023-05-07T07:49:43.717Z,20.60
2023-05-07T07:52:10.449Z,20.70
2023-05-07T07:54:36.993Z,20.60
2023-05-07T07:57:03.567Z,20.50
2023-05-07T07:59:30.220Z,20.30
2023-05-07T08:01:57.975Z,20.30
2023-05-07T08:04:24.704Z,20.40
2023-05-07T08:06:51.337Z,20.70
2023-05-07T08:09:17.946Z,20.70
2023-05-07T08:11:44.546Z,21.00
2023-05-07T08:14:11.097Z,21.10
2023-05-07T08:16:37.737Z,21.00
2023-05-07T08:19:04.387Z,21.10
2023-05-07T08:21:33.113Z,21.20
2023-05-07T08:24:00.932Z,21.10
2023-05-07T08:26:27.487Z,20.90
2023-05-07T08:28:54.304Z,21.00
2023-05-07T08:31:21.162Z,21.10
2023-05-07T08:33:48.072Z,21.10
2023-05-07T08:36:14.636Z,21.10
2023-05-07T08:38:43.631Z,21.10
2023-05-07T08:41:11.685Z,21.00
2023-05-07T08:43:41.000Z,21.00
2023-05-07T08:46:10.902Z,21.20
2023-05-07T08:48:38.281Z,21.30
2023-05-07T08:51:05.056Z,21.20
2023-05-07T08:53:32.225Z,21.20
2023-05-07T08:55:59.819Z,21.20
2023-05-07T08:58:26.436Z,21.40
2023-05-07T09:00:54.870Z,21.50
2023-05-07T09:03:21.665Z,21.40
2023-05-07T09:05:48.237Z,21.30
2023-05-07T09:08:17.076Z,21.50
2023-05-07T09:10:43.705Z,21.60
2023-05-07T09:13:14.058Z,21.70
2023-05-07T09:15:40.694Z,21.70
2023-05-07T09:18:07.549Z,21.90
2023-05-07T09:20:34.167Z,22.10
2023-05-07T09:23:00.727Z,22.20
2023-05-07T09:25:32.415Z,22.10
2023-05-07T09:28:00.023Z,22.00
2023-05-07T09:30:33.370Z,22.10
2023-05-07T09:33:00.861Z,22.20
2023-05-07T09:35:28.497Z,22.40
2023-05-07T09:37:57.024Z,22.30
2023-05-07T09:40:26.039Z,21.90
2023-05-07T09:42:52.959Z,21.70
2023-05-07T09:45:29.699Z,21.60
2023-05-07T09:47:58.150Z,21.60
2023-05-07T09:50:30.197Z,21.30
2023-05-07T09:52:57.772Z,21.20
2023-05-07T09:55:24.977Z,21.10
2023-05-07T09:57:53.186Z,21.10
2023-05-07T10:00:22.237Z,21.20
2023-05-07T10:02:53.913Z,21.20
2023-05-07T10:05:23.977Z,21.20
2023-05-07T10:07:51.927Z,21.30
2023-05-07T10:10:18.704Z,21.10
2023-05-07T10:12:46.213Z,21.10
2023-05-07T10:15:13.854Z,20.90
2023-05-07T10:17:41.666Z,20.90
2023-05-07T10:20:09.321Z,20.90
2023-05-07T10:22:41.820Z,20.80
2023-05-07T10:25:18.704Z,20.80
2023-05-07T10:27:48.407Z,20.80
2023-05-07T10:30:44.420Z,20.70
2023-05-07T10:33:14.564Z,20.50
2023-05-07T10:35:43.846Z,20.40
2023-05-07T10:38:10.805Z,20.40
2023-05-07T10:40:37.697Z,20.40
2023-05-07T10:43:07.589Z,20.40
2023-05-07T10:45:36.007Z,20.30
2023-05-07T10:48:28.730Z,20.30
2023-05-07T10:51:20.853Z,20.30
2023-05-07T10:53:47.373Z,20.30
2023-05-07T10:56:19.888Z,20.20
2023-05-07T10:58:46.502Z,20.10
2023-05-07T11:01:14.272Z,20.10
2023-05-07T11:04:16.715Z,20.10
2023-05-07T11:07:03.273Z,20.20
2023-05-07T11:09:52.842Z,20.30
2023-05-07T11:12:38.272Z,20.20
2023-05-07T11:15:09.420Z,20.30
2023-05-07T11:17:56.591Z,20.30
2023-05-07T11:20:49.916Z,20.40
2023-05-07T11:23:35.014Z,20.50
2023-05-07T11:26:09.488Z,20.60
2023-05-07T11:28:40.855Z,20.60
2023-05-07T11:31:08.169Z,20.70
2023-05-07T11:33:35.971Z,20.80
2023-05-07T11:36:06.354Z,21.00
2023-05-07T11:38:37.134Z,21.00
2023-05-07T11:41:05.875Z,21.00
2023-05-07T11:43:33.610Z,21.00
2023-05-07T11:46:10.990Z,21.10
2023-05-07T11:48:37.941Z,21.20
2023-05-07T11:51:13.378Z,21.30
2023-05-07T11:53:44.026Z,21.40
2023-05-07T11:56:12.767Z,21.40
2023-05-07T11:58:40.306Z,21.50
2023-05-07T12:01:09.919Z,21.50
2023-05-07T12:03:43.392Z,21.50
2023-05-07T12:06:10.931Z,21.60
2023-05-07T12:08:39.041Z,21.60
2023-05-07T12:11:09.777Z,21.70
2023-05-07T12:13:36.341Z,21.70
2023-05-07T12:16:06.810Z,21.70
2023-05-07T12:18:35.260Z,21.70
2023-05-07T12:21:02.196Z,21.70
2023-05-07T12:23:30.031Z,21.70
2023-05-07T12:25:56.864Z,21.80
2023-05-07T12:28:23.503Z,21.80
2023-05-07T12:30:52.706Z,21.90
2023-05-07T12:33:24.882Z,21.90
2023-05-07T12:35:51.426Z,22.00
2023-05-07T12:38:19.042Z,22.10
2023-05-07T12:40:48.276Z,22.10
2023-05-07T12:43:27.210Z,22.10
2023-05-07T12:46:00.306Z,22.20
2023-05-07T12:48:28.046Z,22.10
2023-05-07T12:50:55.557Z,22.10
2023-05-07T12:53:23.975Z,22.00
2023-05-07T12:55:52.390Z,22.00
2023-05-07T12:58:21.757Z,22.00
2023-05-07T13:00:49.805Z,22.00
2023-05-07T13:03:24.097Z,22.00
2023-05-07T13:05:52.271Z,22.00
2023-05-07T13:08:25.893Z,22.10
2023-05-07T13:10:53.363Z,22.10
2023-05-07T13:13:21.318Z,22.10
2023-05-07T13:15:49.157Z,22.10
2023-05-07T13:18:15.932Z,22.10
2023-05-07T13:20:42.672Z,22.10
2023-05-07T13:23:09.272Z,22.00
2023-05-07T13:25:37.081Z,22.00
2023-05-07T13:28:10.875Z,22.00
2023-05-07T13:30:38.052Z,22.00
2023-05-07T13:33:05.006Z,22.10
2023-05-07T13:35:31.676Z,22.20
2023-05-07T13:37:58.304Z,22.20
2023-05-07T13:40:25.257Z,22.20
2023-05-07T13:42:51.885Z,22.10
2023-05-07T13:45:21.486Z,22.00
2023-05-07T13:47:49.920Z,21.90
2023-05-07T13:50:16.917Z,21.90
2023-05-07T13:52:46.967Z,22.00
2023-05-07T13:55:13.764Z,22.00
2023-05-07T13:57:40.469Z,22.00
2023-05-07T14:00:07.660Z,21.90
2023-05-07T14:02:34.345Z,21.90
2023-05-07T14:05:01.206Z,21.80
2023-05-07T14:07:27.875Z,21.60
2023-05-07T14:09:54.827Z,21.30
2023-05-07T14:12:21.402Z,21.00
2023-05-07T14:14:47.979Z,20.80
2023-05-07T14:17:14.552Z,20.70
2023-05-07T14:19:41.171Z,20.60
2023-05-07T14:22:07.715Z,20.40
2023-05-07T14:24:38.506Z,20.30
2023-05-07T14:27:06.730Z,20.30
2023-05-07T14:29:33.498Z,20.30
2023-05-07T14:32:00.134Z,20.10
2023-05-07T14:34:26.657Z,20.00
2023-05-07T14:36:53.254Z,20.00
2023-05-07T14:39:19.830Z,19.90
2023-05-07T14:41:46.365Z,19.80
2023-05-07T14:44:12.912Z,19.90
2023-05-07T14:46:39.672Z,20.00
2023-05-07T14:49:07.671Z,20.00
2023-05-07T14:51:34.407Z,20.00
2023-05-07T14:54:02.244Z,20.00
2023-05-07T14:56:28.801Z,19.90
2023-05-07T14:58:55.419Z,19.90
2023-05-07T15:01:22.414Z,19.80
2023-05-07T15:03:49.161Z,19.80
2023-05-07T15:06:15.899Z,19.80
2023-05-07T15:08:42.462Z,19.80
2023-05-07T15:11:09.074Z,19.70
2023-05-07T15:13:35.674Z,19.80
2023-05-07T15:16:02.261Z,19.80
2023-05-07T15:18:28.862Z,19.90
2023-05-07T15:20:56.833Z,19.70
2023-05-07T15:23:23.500Z,19.60
2023-05-07T15:25:52.143Z,19.40
2023-05-07T15:28:19.614Z,19.50
2023-05-07T15:30:46.269Z,19.30
2023-05-07T15:33:13.020Z,19.10
2023-05-07T15:35:39.618Z,18.90
2023-05-07T15:38:06.429Z,19.00
2023-05-07T15:40:33.790Z,19.00
2023-05-07T15:43:01.059Z,18.80
2023-05-07T15:45:27.674Z,18.80
2023-05-07T15:47:54.320Z,18.90
2023-05-07T15:50:20.981Z,18.80
2023-05-07T15:52:47.560Z,18.90
2023-05-07T15:55:14.855Z,19.00
2023-05-07T15:57:41.465Z,19.00
2023-05-07T16:00:10.005Z,19.00
2023-05-07T16:02:37.366Z,19.00
2023-05-07T16:05:04.242Z,18.90
2023-05-07T16:07:30.930Z,18.80
2023-05-07T16:09:57.532Z,18.60
2023-05-07T16:12:24.074Z,18.60
2023-05-07T16:14:51.812Z,18.70
2023-05-07T16:17:18.421Z,18.70
2023-05-07T16:19:45.056Z,18.80
2023-05-07T16:22:13.165Z,18.80
2023-05-07T16:24:40.851Z,18.90
2023-05-07T16:27:07.449Z,18.80
2023-05-07T16:29:34.002Z,18.90
2023-05-07T16:32:00.592Z,18.90
2023-05-07T16:34:27.195Z,18.70
2023-05-07T16:36:53.754Z,18.50
2023-05-07T16:39:23.099Z,18.30
2023-05-07T16:41:50.813Z,18.00
2023-05-07T16:44:17.953Z,17.80
2023-05-07T16:46:44.555Z,17.70
2023-05-07T16:49:11.284Z,17.70
2023-05-07T16:51:38.413Z,17.70
2023-05-07T16:54:05.051Z,17.70
2023-05-07T16:56:31.946Z,17.60
2023-05-07T16:58:58.472Z,17.70
2023-05-07T17:01:25.094Z,17.60
2023-05-07T17:03:51.715Z,17.60
2023-05-07T17:06:18.378Z,17.50
2023-05-07T17:08:45.007Z,17.40
2023-05-07T17:11:12.691Z,17.40
2023-05-07T17:13:40.915Z,17.50
2023-05-07T17:16:07.467Z,17.50
2023-05-07T17:18:34.284Z,17.60
2023-05-07T17:21:00.856Z,17.60
2023-05-07T17:23:27.814Z,17.50
2023-05-07T17:25:54.365Z,17.40
2023-05-07T17:28:20.909Z,17.30
2023-05-07T17:30:48.510Z,17.20
2023-05-07T17:33:21.483Z,17.20
2023-05-07T17:35:52.832Z,17.00
2023-05-07T17:38:19.433Z,16.90
2023-05-07T17:40:46.136Z,16.80
2023-05-07T17:43:12.707Z,16.80
2023-05-07T17:45:39.329Z,16.80
2023-05-07T17:48:06.061Z,16.60
2023-05-07T17:50:32.944Z,16.50
2023-05-07T17:52:59.550Z,16.40
2023-05-07T17:55:26.408Z,16.40
2023-05-07T17:57:52.931Z,16.30
2023-05-07T18:00:19.755Z,16.40
2023-05-07T18:02:46.472Z,16.30
2023-05-07T18:05:13.192Z,16.30
2023-05-07T18:07:39.861Z,16.10
2023-05-07T18:10:06.876Z,16.00
2023-05-07T18:12:33.498Z,15.90
2023-05-07T18:15:00.040Z,15.90
2023-05-07T18:17:27.690Z,16.00
2023-05-07T18:19:55.306Z,16.00
2023-05-07T18:22:22.364Z,15.90
2023-05-07T18:24:49.633Z,15.80
2023-05-07T18:27:16.265Z,15.90
2023-05-07T18:29:42.853Z,15.80
2023-05-07T18:32:09.485Z,15.80
2023-05-07T18:34:36.233Z,15.90
2023-05-07T18:37:02.866Z,15.90
2023-05-07T18:39:31.077Z,16.00
2023-05-07T18:41:58.072Z,15.90
2023-05-07T18:44:25.079Z,15.90
2023-05-07T18:46:51.728Z,15.80
2023-05-07T18:49:18.311Z,15.80
2023-05-07T18:51:45.558Z,15.80
2023-05-07T18:54:12.159Z,15.80
2023-05-07T18:56:38.697Z,15.80
2023-05-07T18:59:05.238Z,15.90
2023-05-07T19:01:31.829Z,15.80
2023-05-07T19:03:58.441Z,15.70
2023-05-07T19:06:26.145Z,15.60
2023-05-07T19:08:52.792Z,15.50
2023-05-07T19:11:19.328Z,15.50
2023-05-07T19:13:45.902Z,15.50
2023-05-07T19:16:13.821Z,15.50
2023-05-07T19:18:41.457Z,15.40
2023-05-07T19:21:08.458Z,15.50
2023-05-07T19:23:41.411Z,15.50
2023-05-07T19:26:10.025Z,15.50
2023-05-07T19:28:39.106Z,15.30
2023-05-07T19:31:07.003Z,15.30
2023-05-07T19:33:33.677Z,15.30
2023-05-07T19:36:00.850Z,15.20
2023-05-07T19:38:28.229Z,15.20
2023-05-07T19:40:55.069Z,15.20
2023-05-07T19:43:21.833Z,15.20
2023-05-07T19:45:49.852Z,15.10
2023-05-07T19:48:16.431Z,15.10
2023-05-07T19:50:43.081Z,15.10
2023-05-07T19:53:09.804Z,15.00
2023-05-07T19:55:36.677Z,15.10
2023-05-07T19:58:03.341Z,15.10
2023-05-07T20:00:32.540Z,15.10
2023-05-07T20:02:59.449Z,15.10
2023-05-07T20:05:27.901Z,15.10
2023-05-07T20:07:57.283Z,15.20
2023-05-07T20:10:23.920Z,15.10
2023-05-07T20:12:50.798Z,15.20
2023-05-07T20:15:17.474Z,15.30
2023-05-07T20:17:44.315Z,15.50
2023-05-07T20:20:11.543Z,15.70
2023-05-07T20:22:38.262Z,15.80
2023-05-07T20:25:06.221Z,16.00
2023-05-07T20:27:34.522Z,16.00
2023-05-07T20:30:01.602Z,15.90
2023-05-07T20:32:28.364Z,15.60
2023-05-07T20:34:54.955Z,15.20
2023-05-07T20:37:22.288Z,15.00
2023-05-07T20:39:48.933Z,14.90
2023-05-07T20:42:15.520Z,14.70
2023-05-07T20:44:42.096Z,14.60
2023-05-07T20:47:08.843Z,14.60
2023-05-07T20:49:35.853Z,14.60
2023-05-07T20:52:02.518Z,14.70
2023-05-07T20:54:29.234Z,14.60
2023-05-07T20:56:57.244Z,14.60
2023-05-07T20:59:24.212Z,14.60
2023-05-07T21:01:51.264Z,14.60
2023-05-07T21:04:17.890Z,14.60
2023-05-07T21:06:44.674Z,14.60
2023-05-07T21:09:11.358Z,14.60
2023-05-07T21:11:37.933Z,14.60
2023-05-07T21:14:04.520Z,14.80
2023-05-07T21:16:31.086Z,15.00
2023-05-07T21:18:57.717Z,15.10
2023-05-07T21:21:24.296Z,15.30
2023-05-07T21:23:50.870Z,15.40
2023-05-07T21:26:18.919Z,15.40
2023-05-07T21:28:45.775Z,15.40
2023-05-07T21:31:12.905Z,15.40
2023-05-07T21:33:39.717Z,15.30
2023-05-07T21:36:06.980Z,15.30
2023-05-07T21:38:33.528Z,15.50
2023-05-07T21:41:00.182Z,15.60
2023-05-07T21:43:26.717Z,15.50
2023-05-07T21:45:53.287Z,15.20
2023-05-07T21:48:22.002Z,14.90
2023-05-07T21:50:58.454Z,14.80
2023-05-07T21:53:25.373Z,14.80
2023-05-07T21:55:51.983Z,14.80
2023-05-07T21:58:18.507Z,14.70
2023-05-07T22:00:45.268Z,14.70
2023-05-07T22:03:12.014Z,14.70
2023-05-07T22:05:38.624Z,14.80
2023-05-07T22:08:05.312Z,14.70
2023-05-07T22:10:31.905Z,14.70
2023-05-07T22:12:58.492Z,14.80
2023-05-07T22:15:25.061Z,14.70
2023-05-07T22:17:51.659Z,14.70
2023-05-07T22:20:18.351Z,14.70
2023-05-07T22:22:51.852Z,14.70
2023-05-07T22:25:19.149Z,14.60
2023-05-07T22:27:45.960Z,14.70
2023-05-07T22:30:12.861Z,14.70
2023-05-07T22:32:41.437Z,14.70
2023-05-07T22:35:08.575Z,14.70
2023-05-07T22:37:35.151Z,14.60
2023-05-07T22:40:02.010Z,14.50
2023-05-07T22:42:28.606Z,14.60
2023-05-07T22:44:56.595Z,14.60
2023-05-07T22:47:23.438Z,14.60
2023-05-07T22:49:50.042Z,14.50
2023-05-07T22:52:17.132Z,14.50
2023-05-07T22:54:43.718Z,14.50
2023-05-07T22:57:10.307Z,14.50
2023-05-07T22:59:36.899Z,14.40
2023-05-07T23:02:04.794Z,14.30
2023-05-07T23:04:31.563Z,14.40
2023-05-07T23:06:58.090Z,14.40
2023-05-07T23:09:24.621Z,14.50
2023-05-07T23:11:51.157Z,14.50
2023-05-07T23:14:17.767Z,14.50
2023-05-07T23:16:44.388Z,14.50
2023-05-07T23:19:11.498Z,14.60
2023-05-07T23:21:38.046Z,14.50
2023-05-07T23:24:04.903Z,14.50
2023-05-07T23:26:31.867Z,14.50
2023-05-07T23:28:58.507Z,14.50
2023-05-07T23:31:25.140Z,14.40
2023-05-07T23:33:51.728Z,14.40
2023-05-07T23:36:18.381Z,14.50
2023-05-07T23:38:45.332Z,14.50
2023-05-07T23:41:11.907Z,14.40
2023-05-07T23:43:38.597Z,14.50
2023-05-07T23:46:05.217Z,14.40
2023-05-07T23:48:31.850Z,14.50
2023-05-07T23:50:58.376Z,14.50
2023-05-07T23:53:24.935Z,14.50
2023-05-07T23:55:51.548Z,14.40
2023-05-07T23:58:18.136Z,14.50
